Terminal Aerodrome Forecast
Issued by NWS

Home | Current Version | Previous Version | Text Only | Print | Product List | Glossary Off
Versions: 1 2 3 4 5 6 7 8 9 10 11 12 13 14 15 16 17 18 19 20 21 22 23 24

433
FTUS43 KABR 251050 AAB
TAFMBG
TAF AMD
KMBG 251050Z 2511/2606 01011KT P6SM FEW007 OVC012
     FM251300 01012KT P6SM OVC007
     FM251700 02015G23KT P6SM OVC015=

USA.gov is the U.S. government's official web portal to all federal, state and local government web resources and services.